createdAt,value
2023-03-24T00:03:08.437Z,73.90
2023-03-24T00:08:12.554Z,73.57
2023-03-24T00:13:16.985Z,73.64
2023-03-24T00:18:23.134Z,73.58
2023-03-24T00:23:28.770Z,73.98
2023-03-24T00:28:34.932Z,73.94
2023-03-24T00:33:41.341Z,73.58
2023-03-24T00:38:45.378Z,73.71
2023-03-24T00:43:51.245Z,73.96
2023-03-24T00:49:07.676Z,74.08
2023-03-24T00:54:14.742Z,74.15
2023-03-24T00:59:18.771Z,74.19
2023-03-24T01:04:27.072Z,74.17
2023-03-24T01:09:31.840Z,74.14
2023-03-24T01:14:35.950Z,73.97
2023-03-24T01:19:41.726Z,74.41
2023-03-24T01:24:45.695Z,74.37
2023-03-24T01:29:50.134Z,74.40
2023-03-24T01:34:54.082Z,74.41
2023-03-24T01:39:58.155Z,74.28
2023-03-24T01:45:23.111Z,74.35
2023-03-24T01:50:27.465Z,74.14
2023-03-24T01:55:32.977Z,74.42
2023-03-24T02:00:38.837Z,74.11
2023-03-24T02:06:07.588Z,74.63
2023-03-24T02:11:12.007Z,74.03
2023-03-24T02:16:48.896Z,74.85
2023-03-24T02:22:36.024Z,74.58
2023-03-24T02:27:59.046Z,74.83
2023-03-24T02:33:30.290Z,74.25
2023-03-24T02:38:40.445Z,74.34
2023-03-24T02:44:05.836Z,74.02
2023-03-24T02:49:53.190Z,74.29
2023-03-24T02:55:23.459Z,73.89
2023-03-24T03:00:48.797Z,73.68
2023-03-24T03:06:25.478Z,73.82
2023-03-24T03:11:29.728Z,73.10
2023-03-24T03:16:39.930Z,73.45
2023-03-24T03:21:46.797Z,72.86
2023-03-24T03:26:51.427Z,72.08
2023-03-24T03:32:08.828Z,72.16
2023-03-24T03:37:24.090Z,71.49
2023-03-24T03:42:28.294Z,70.69
2023-03-24T03:47:33.791Z,70.25
2023-03-24T03:52:42.463Z,68.99
2023-03-24T03:57:47.511Z,67.71
2023-03-24T04:03:18.385Z,68.22
2023-03-24T04:08:43.469Z,67.21
2023-03-24T04:14:12.006Z,66.65
2023-03-24T04:19:59.487Z,66.66
2023-03-24T04:25:12.307Z,64.54
2023-03-24T04:30:31.825Z,62.48
2023-03-24T04:35:46.421Z,61.21
2023-03-24T04:41:09.073Z,60.42
2023-03-24T04:46:18.865Z,59.89
2023-03-24T04:51:34.475Z,58.88
2023-03-24T04:57:05.198Z,59.79
2023-03-24T05:02:14.150Z,59.91
2023-03-24T05:07:29.474Z,60.04
2023-03-24T05:12:36.941Z,59.67
2023-03-24T05:17:59.542Z,59.71
2023-03-24T05:23:04.015Z,58.90
2023-03-24T05:28:08.032Z,58.15
2023-03-24T05:33:12.801Z,57.39
2023-03-24T05:38:17.446Z,55.67
2023-03-24T05:43:26.699Z,55.66
2023-03-24T05:48:42.756Z,55.65
2023-03-24T05:53:53.504Z,53.78
2023-03-24T05:59:33.348Z,52.45
2023-03-24T06:05:10.967Z,51.61
2023-03-24T06:10:15.196Z,50.94
2023-03-24T06:15:28.725Z,51.80
2023-03-24T06:20:45.753Z,51.24
2023-03-24T06:25:59.988Z,50.85
2023-03-24T06:31:07.174Z,50.86
2023-03-24T06:36:15.194Z,50.74
2023-03-24T06:41:20.551Z,49.92
2023-03-24T06:46:28.874Z,48.98
2023-03-24T06:51:33.699Z,48.36
2023-03-24T06:56:37.851Z,48.42
2023-03-24T07:01:43.028Z,47.16
2023-03-24T07:07:14.710Z,46.08
2023-03-24T07:12:24.112Z,46.24
2023-03-24T07:17:28.061Z,45.99
2023-03-24T07:22:45.568Z,46.46
2023-03-24T07:28:10.107Z,44.44
2023-03-24T07:33:15.626Z,44.99
2023-03-24T07:38:21.653Z,43.03
2023-03-24T07:43:29.040Z,42.17
2023-03-24T07:49:16.121Z,41.81
2023-03-24T07:54:30.373Z,41.86
2023-03-24T07:59:34.978Z,40.98
2023-03-24T08:04:43.956Z,40.55
2023-03-24T08:10:23.560Z,40.59
2023-03-24T08:15:29.175Z,40.38
2023-03-24T08:20:33.219Z,41.67
2023-03-24T08:25:38.011Z,41.91
2023-03-24T08:30:44.475Z,41.90
2023-03-24T08:35:48.893Z,40.71
2023-03-24T08:40:53.567Z,41.76
2023-03-24T08:46:00.848Z,42.52
2023-03-24T08:51:15.439Z,42.70
2023-03-24T08:56:20.584Z,42.85
2023-03-24T09:01:25.210Z,43.33
2023-03-24T09:06:29.165Z,42.92
2023-03-24T09:11:33.409Z,43.21
2023-03-24T09:16:37.389Z,42.80
2023-03-24T09:21:43.559Z,43.28
2023-03-24T09:26:47.738Z,43.38
2023-03-24T09:31:54.517Z,43.39
2023-03-24T09:36:58.431Z,43.06
2023-03-24T09:42:02.529Z,43.01
2023-03-24T09:47:06.307Z,43.07
2023-03-24T09:52:16.122Z,42.75
2023-03-24T09:57:26.164Z,40.95
2023-03-24T10:02:32.253Z,40.72
2023-03-24T10:07:47.246Z,41.58
2023-03-24T10:12:51.522Z,43.28
2023-03-24T10:18:13.832Z,43.10
2023-03-24T10:23:36.456Z,43.17
2023-03-24T10:28:52.232Z,43.65
2023-03-24T10:33:57.622Z,43.62
2023-03-24T10:39:16.349Z,43.53
2023-03-24T10:44:23.604Z,43.47
2023-03-24T10:49:27.597Z,43.63
2023-03-24T10:54:32.730Z,43.65
2023-03-24T10:59:57.534Z,43.53
2023-03-24T11:05:06.151Z,43.64
2023-03-24T11:10:16.209Z,43.32
2023-03-24T11:15:31.540Z,43.47
2023-03-24T11:21:05.950Z,43.93
2023-03-24T11:26:23.021Z,44.02
2023-03-24T11:31:32.337Z,44.41
2023-03-24T11:36:46.270Z,44.07
2023-03-24T11:42:11.738Z,43.60
2023-03-24T11:47:54.433Z,43.30
2023-03-24T11:53:16.368Z,43.58
2023-03-24T11:58:28.773Z,44.22
2023-03-24T12:03:51.062Z,44.07
2023-03-24T12:09:22.233Z,43.92
2023-03-24T12:14:55.833Z,44.37
2023-03-24T12:20:17.861Z,44.03
2023-03-24T12:25:32.095Z,44.72
2023-03-24T12:30:36.151Z,44.98
2023-03-24T12:35:48.171Z,44.95
2023-03-24T12:41:12.812Z,45.59
2023-03-24T12:46:48.447Z,45.66
2023-03-24T12:52:05.465Z,46.16
2023-03-24T12:57:15.444Z,46.21
2023-03-24T13:02:28.363Z,46.79
2023-03-24T13:07:39.751Z,47.44
2023-03-24T13:13:23.193Z,47.51
2023-03-24T13:18:53.965Z,47.69
2023-03-24T13:24:15.376Z,48.41
2023-03-24T13:29:50.071Z,48.26
2023-03-24T13:34:57.261Z,48.39
2023-03-24T13:40:07.598Z,49.38
2023-03-24T13:45:40.292Z,50.08
2023-03-24T13:51:07.744Z,50.02
2023-03-24T13:56:21.635Z,50.47
2023-03-24T14:01:43.283Z,50.35
2023-03-24T14:06:49.145Z,50.91
2023-03-24T14:11:55.851Z,51.41
2023-03-24T14:17:06.030Z,51.54
2023-03-24T14:22:12.001Z,51.76
2023-03-24T14:27:35.487Z,52.05
2023-03-24T14:32:56.276Z,52.10
2023-03-24T14:38:24.960Z,52.34
2023-03-24T14:43:50.379Z,52.19
2023-03-24T14:49:04.608Z,52.61
2023-03-24T14:54:40.023Z,52.81
2023-03-24T14:59:56.538Z,53.34
2023-03-24T15:05:26.385Z,54.17
2023-03-24T15:10:49.706Z,54.84
2023-03-24T15:15:53.986Z,54.75
2023-03-24T15:20:58.209Z,54.95
2023-03-24T15:26:02.504Z,55.44
2023-03-24T15:31:07.094Z,56.15
2023-03-24T15:36:22.711Z,56.11
2023-03-24T15:41:26.656Z,55.98
2023-03-24T15:46:31.793Z,56.35
2023-03-24T15:51:58.399Z,56.65
2023-03-24T15:57:14.655Z,57.00
2023-03-24T16:02:42.738Z,56.88
2023-03-24T16:07:57.053Z,57.22
2023-03-24T16:13:12.582Z,57.23
2023-03-24T16:18:21.148Z,56.76
2023-03-24T16:23:26.840Z,56.52
2023-03-24T16:28:32.808Z,57.21
2023-03-24T16:33:38.259Z,56.96
2023-03-24T16:38:42.685Z,57.02
2023-03-24T16:43:47.768Z,57.35
2023-03-24T16:48:51.765Z,57.08
2023-03-24T16:53:55.865Z,57.52
2023-03-24T16:59:00.190Z,58.18
2023-03-24T17:04:11.108Z,57.38
2023-03-24T17:09:15.496Z,57.65
2023-03-24T17:14:19.884Z,57.65
2023-03-24T17:19:25.034Z,57.59
2023-03-24T17:24:42.590Z,58.55
2023-03-24T17:29:47.124Z,58.48
2023-03-24T17:34:51.033Z,58.68
2023-03-24T17:39:57.012Z,58.62
2023-03-24T17:45:00.894Z,58.64
2023-03-24T17:50:12.086Z,59.11
2023-03-24T17:55:18.041Z,58.71
2023-03-24T18:00:22.437Z,59.23
2023-03-24T18:05:26.926Z,58.92
2023-03-24T18:10:35.070Z,59.81
2023-03-24T18:15:43.575Z,59.58
2023-03-24T18:20:47.625Z,59.70
2023-03-24T18:26:05.446Z,60.36
2023-03-24T18:31:19.438Z,60.30
2023-03-24T18:36:27.157Z,60.30
2023-03-24T18:41:31.944Z,60.13
2023-03-24T18:46:37.569Z,60.24
2023-03-24T18:51:43.070Z,60.77
2023-03-24T18:56:47.081Z,61.11
2023-03-24T19:01:51.203Z,60.71
2023-03-24T19:06:55.637Z,60.75
2023-03-24T19:11:59.561Z,61.53
2023-03-24T19:17:03.762Z,61.27
2023-03-24T19:22:09.042Z,60.65
2023-03-24T19:27:13.195Z,61.29
2023-03-24T19:32:17.155Z,61.66
2023-03-24T19:37:22.588Z,61.17
2023-03-24T19:42:32.078Z,61.57
2023-03-24T19:47:37.682Z,61.62
2023-03-24T19:52:46.658Z,61.65
2023-03-24T19:57:50.600Z,61.84
2023-03-24T20:02:54.781Z,61.65
2023-03-24T20:08:00.044Z,61.87
2023-03-24T20:13:04.202Z,61.95
2023-03-24T20:18:08.491Z,62.39
2023-03-24T20:23:13.005Z,62.18
2023-03-24T20:28:17.829Z,62.41
2023-03-24T20:33:22.643Z,62.46
2023-03-24T20:38:27.155Z,62.29
2023-03-24T20:43:35.566Z,62.37
2023-03-24T20:48:39.394Z,62.39
2023-03-24T20:53:45.528Z,62.31
2023-03-24T20:58:50.952Z,62.83
2023-03-24T21:03:58.248Z,62.54
2023-03-24T21:09:09.114Z,62.61
2023-03-24T21:14:12.813Z,63.07
2023-03-24T21:19:17.476Z,62.74
2023-03-24T21:24:21.770Z,62.83
2023-03-24T21:29:27.374Z,63.06
2023-03-24T21:34:31.209Z,62.98
2023-03-24T21:39:35.382Z,62.92
2023-03-24T21:44:40.301Z,63.32
2023-03-24T21:49:46.494Z,62.93
2023-03-24T21:54:50.455Z,63.07
2023-03-24T21:59:54.453Z,63.88
2023-03-24T22:05:02.187Z,63.33
2023-03-24T22:10:08.952Z,63.26
2023-03-24T22:15:13.303Z,63.22
2023-03-24T22:20:17.825Z,63.54
2023-03-24T22:25:21.651Z,63.23
2023-03-24T22:30:25.948Z,63.61
2023-03-24T22:35:30.279Z,63.87
2023-03-24T22:40:35.087Z,63.67
2023-03-24T22:45:38.931Z,63.53
2023-03-24T22:50:43.182Z,63.66
2023-03-24T22:55:47.294Z,63.51
2023-03-24T23:00:55.373Z,64.45
2023-03-24T23:06:03.313Z,64.04
2023-03-24T23:11:08.636Z,63.98
2023-03-24T23:16:13.310Z,64.07
2023-03-24T23:21:18.960Z,64.06
2023-03-24T23:26:25.408Z,64.30
2023-03-24T23:31:31.050Z,64.70
2023-03-24T23:36:35.053Z,64.88
2023-03-24T23:41:39.004Z,64.66
2023-03-24T23:46:43.413Z,64.79
2023-03-24T23:51:47.359Z,65.13
2023-03-24T23:56:52.291Z,64.36
